Hovedside
METAR-TAF:

METAR-TAF

Lufthavner :

Västerås lufthavn

Västerås, Sverige

breddegrad: 59-35N, lengdegrad: 016-38E, høyde over havet: 6 m

Gjeldene værobservasjon

Denne rapporten ble laget for 34 minutter siden, klokken 04:20 UTC
Vind 1 kt fra skiftende retning
Temperatur 6°C
Luftfuktighet 100%
Trykk 1016 hPa
Sikt: 0200 m
dis

METAR: ESOW 160420Z AUTO VRB01KT 0200 R01/1000N R19/P2000N BR BKN090/// BKN130/// 06/06 Q1016

Tid: 06:54 (04:54 UTC)

Varsel

Denne rapporten ble laget for 11 timer og 24 minutter siden, klokken 17:30 UTC
Varsel gyldig fra 15. klokken 18 UTC til 15. klokken 20 UTC
Vind 5 kt fra Sør
Sikt 10 km eller mer
ingen skyer under 1500 m og ingen bygeskyer

TAF: ESOW 151730Z 1518/1520 18005KT CAVOK

Værobservasjoner og værvarsel for over 4000 flyplasser (METAR- og TAF-rapporter).

Tilgjengelige stasjoner er representert av de røde og gule prikkene på kartet.

Hold musepekeren over prikken for å se navnet på stasjonen.

Klikk så for å se værobservasjoner og -varsler.

For å forandre kartet kan du klikke på den grønne knappen med svart kryss for å zoome inn, på den grønne knappen med strek for å zoome ut, eller på de grønne pilene for å se tilstøtende kart.


METAR-TAF: